Time;durP1;ratioP1;P1;durP2;ratioP2;P2;SDS_P1;SDS_P2;PMS_P1;PMS_P2;Temp;Humidity;BMP_temperature;BMP_pressure;BME280_temperature;BME280_humidity;BME280_pressure;Samples;Min_cycle;Max_cycle;Signal;HPM_P1;HPM_P2
2023/01/26 00:02:23;;;;;;;34.00;13.00;;;1.30;99.90;;;;;;5055080;28;20462;-70
2023/01/26 00:04:50;;;;;;;24.27;12.30;;;1.20;99.90;;;;;;5055076;28;20459;-71
2023/01/26 00:07:17;;;;;;;25.10;12.30;;;1.20;99.90;;;;;;5055088;28;20455;-72
2023/01/26 00:09:43;;;;;;;20.23;11.63;;;1.10;99.90;;;;;;5054819;28;20455;-71
2023/01/26 00:12:12;;;;;;;30.70;14.87;;;1.10;99.90;;;;;;5054911;28;20455;-70
2023/01/26 00:14:50;;;;;;;26.80;13.83;;;1.10;99.90;;;;;;5054550;28;20888;-70
2023/01/26 00:17:24;;;;;;;27.77;13.50;;;1.10;99.90;;;;;;5054826;28;20489;-70
2023/01/26 00:19:53;;;;;;;30.13;13.03;;;1.10;99.90;;;;;;5055470;28;20447;-70
2023/01/26 00:22:20;;;;;;;26.20;14.10;;;1.10;99.90;;;;;;5054459;28;20459;-70
2023/01/26 00:24:47;;;;;;;24.90;14.43;;;1.00;99.90;;;;;;5054700;28;20506;-70
2023/01/26 00:27:15;;;;;;;21.37;12.20;;;1.00;99.90;;;;;;5054695;28;20498;-70
2023/01/26 00:29:42;;;;;;;28.70;14.40;;;1.00;99.90;;;;;;5054300;28;20455;-71
2023/01/26 00:32:09;;;;;;;24.77;13.83;;;1.00;99.90;;;;;;5054987;28;20763;-70
2023/01/26 00:34:36;;;;;;;24.90;13.20;;;0.90;99.90;;;;;;5054398;28;20459;-70
2023/01/26 00:37:03;;;;;;;20.93;12.83;;;1.00;99.90;;;;;;5054429;28;20489;-70
2023/01/26 00:39:30;;;;;;;23.10;12.60;;;1.00;99.90;;;;;;5055271;28;20541;-70
2023/01/26 00:42:12;;;;;;;21.73;12.33;;;1.00;99.90;;;;;;5054790;28;20630;-71
2023/01/26 00:44:42;;;;;;;26.23;12.80;;;1.00;99.90;;;;;;5054077;28;20487;-71
2023/01/26 00:47:10;;;;;;;27.93;13.50;;;0.90;99.90;;;;;;5055038;28;20455;-72
2023/01/26 00:49:37;;;;;;;28.27;13.17;;;1.00;99.90;;;;;;5055236;28;20780;-71
2023/01/26 00:52:05;;;;;;;24.90;14.50;;;1.00;99.90;;;;;;5054740;28;20473;-71
2023/01/26 00:54:32;;;;;;;31.30;14.20;;;1.00;99.90;;;;;;5055308;28;20455;-71
2023/01/26 00:56:59;;;;;;;26.50;13.23;;;1.10;99.90;;;;;;5055405;28;20962;-70
2023/01/26 00:59:26;;;;;;;31.13;14.33;;;1.10;99.90;;;;;;5055148;28;20852;-70
2023/01/26 01:01:54;;;;;;;27.13;14.30;;;1.10;99.90;;;;;;5055789;28;20633;-70
2023/01/26 01:04:21;;;;;;;26.43;13.10;;;1.20;99.90;;;;;;5055427;28;20967;-71
2023/01/26 01:06:48;;;;;;;28.70;15.23;;;1.20;99.90;;;;;;5055690;28;20535;-71
2023/01/26 01:09:15;;;;;;;27.53;13.43;;;1.20;99.90;;;;;;5054918;28;20538;-70
2023/01/26 01:11:42;;;;;;;31.30;15.30;;;1.30;99.90;;;;;;5055359;28;20873;-70
2023/01/26 01:14:09;;;;;;;31.47;14.40;;;1.30;99.90;;;;;;5054868;28;20797;-70
2023/01/26 01:16:36;;;;;;;32.10;13.70;;;1.30;99.90;;;;;;5055077;28;20987;-70
2023/01/26 01:19:04;;;;;;;35.43;16.00;;;1.30;99.90;;;;;;5054359;28;20461;-70
2023/01/26 01:21:31;;;;;;;33.83;16.07;;;1.20;99.90;;;;;;5054941;28;20486;-72
2023/01/26 01:23:59;;;;;;;28.90;13.43;;;1.20;99.90;;;;;;5054427;28;20470;-70
2023/01/26 01:26:25;;;;;;;30.53;14.20;;;1.20;99.90;;;;;;5054347;28;20939;-70
2023/01/26 01:28:54;;;;;;;27.43;14.67;;;1.10;99.90;;;;;;5054579;28;20513;-71
2023/01/26 01:31:22;;;;;;;29.30;14.60;;;1.10;99.90;;;;;;5054373;28;20450;-71
2023/01/26 01:33:49;;;;;;;33.80;16.00;;;1.10;99.90;;;;;;5054406;28;20455;-70
2023/01/26 01:36:17;;;;;;;30.00;13.90;;;1.10;99.90;;;;;;5054208;28;20469;-70
2023/01/26 01:38:45;;;;;;;28.27;15.07;;;1.20;99.90;;;;;;5054526;28;20479;-71
2023/01/26 01:41:15;;;;;;;37.93;16.10;;;1.30;99.90;;;;;;5058306;28;20512;-72
2023/01/26 01:43:43;;;;;;;27.33;14.17;;;1.30;99.90;;;;;;5058878;28;20975;-72
2023/01/26 01:46:17;;;;;;;33.03;14.47;;;1.30;99.90;;;;;;5058845;28;20538;-71
2023/01/26 01:48:51;;;;;;;30.83;14.70;;;1.30;99.90;;;;;;5058948;28;20841;-71
2023/01/26 01:51:26;;;;;;;30.70;13.97;;;1.20;99.90;;;;;;5058351;28;20443;-71
2023/01/26 01:53:57;;;;;;;28.80;13.90;;;1.30;99.90;;;;;;5058390;28;20482;-71
2023/01/26 01:56:27;;;;;;;29.30;14.43;;;1.30;99.90;;;;;;5058514;28;20451;-71
2023/01/26 01:58:57;;;;;;;38.30;14.80;;;1.30;99.90;;;;;;5058187;28;20510;-71
2023/01/26 02:01:26;;;;;;;29.10;15.43;;;1.40;99.90;;;;;;5058368;28;20466;-70
2023/01/26 02:03:59;;;;;;;29.77;14.37;;;1.40;99.90;;;;;;5058192;28;20455;-70
2023/01/26 02:06:33;;;;;;;33.00;14.40;;;1.40;99.90;;;;;;5058403;28;20444;-71
2023/01/26 02:09:01;;;;;;;32.80;16.13;;;1.40;99.90;;;;;;5057906;28;20464;-72
2023/01/26 02:11:35;;;;;;;28.07;14.73;;;1.40;99.90;;;;;;5058213;28;20458;-72
2023/01/26 02:14:04;;;;;;;32.60;15.67;;;1.40;99.90;;;;;;5058738;28;20474;-71
2023/01/26 02:16:31;;;;;;;26.87;14.27;;;1.40;99.90;;;;;;5058318;28;20842;-71
2023/01/26 02:18:58;;;;;;;30.70;15.40;;;1.40;99.90;;;;;;5057666;28;20526;-71
2023/01/26 02:21:25;;;;;;;28.50;14.07;;;1.40;99.90;;;;;;5057445;28;20938;-71
2023/01/26 02:24:09;;;;;;;26.00;13.70;;;1.40;99.90;;;;;;5057317;28;20908;-71
2023/01/26 02:26:38;;;;;;;24.80;13.63;;;1.30;99.90;;;;;;5057240;28;20475;-71
2023/01/26 02:29:07;;;;;;;26.47;12.83;;;1.20;99.90;;;;;;5057132;28;20815;-71
2023/01/26 02:31:34;;;;;;;28.63;13.47;;;1.20;99.90;;;;;;5057474;28;20461;-70
2023/01/26 02:34:01;;;;;;;26.30;13.13;;;1.20;99.90;;;;;;5057502;28;20455;-69
2023/01/26 02:36:29;;;;;;;26.37;12.80;;;1.20;99.90;;;;;;5057321;28;20549;-70
2023/01/26 02:39:08;;;;;;;33.80;14.50;;;1.20;99.90;;;;;;5057502;28;20491;-71
2023/01/26 02:44:22;;;;;;;29.90;15.07;;;1.20;99.90;;;;;;5056589;28;20566;-71
2023/01/26 02:46:49;;;;;;;27.60;14.20;;;1.30;99.90;;;;;;5056639;28;20558;-71
2023/01/26 02:52:00;;;;;;;27.30;13.70;;;1.30;99.90;;;;;;5055973;28;20478;-71
2023/01/26 02:57:13;;;;;;;28.40;13.83;;;1.20;99.90;;;;;;5056464;28;20903;-72
2023/01/26 02:59:40;;;;;;;28.60;14.47;;;1.20;99.90;;;;;;5056383;28;20465;-71
2023/01/26 03:02:08;;;;;;;29.60;14.50;;;1.20;99.90;;;;;;5056568;28;20481;-71
2023/01/26 03:04:34;;;;;;;33.30;14.07;;;1.10;99.90;;;;;;5056973;28;20469;-70
2023/01/26 03:07:01;;;;;;;26.50;13.50;;;1.10;99.90;;;;;;5056548;28;20469;-71
2023/01/26 03:09:28;;;;;;;34.23;13.30;;;1.10;99.90;;;;;;5056075;28;20937;-70
2023/01/26 03:11:55;;;;;;;27.83;13.13;;;1.10;99.90;;;;;;5056437;28;20475;-70
2023/01/26 03:14:23;;;;;;;36.93;14.13;;;1.10;99.90;;;;;;5057184;28;20840;-70
2023/01/26 03:16:50;;;;;;;30.30;14.47;;;1.00;99.90;;;;;;5056111;28;20455;-70
2023/01/26 03:27:40;;;;;;;31.17;14.03;;;0.80;99.90;;;;;;5056390;28;20782;-71
2023/01/26 03:30:10;;;;;;;31.00;15.73;;;0.80;99.90;;;;;;5056444;28;20435;-72
2023/01/26 03:32:37;;;;;;;27.60;13.57;;;0.80;99.90;;;;;;5056153;28;20461;-71
2023/01/26 03:35:05;;;;;;;28.87;12.50;;;0.80;99.90;;;;;;5056152;28;20791;-71
2023/01/26 03:37:35;;;;;;;28.07;12.77;;;0.80;99.90;;;;;;5055740;28;20455;-71
2023/01/26 03:56:32;;;;;;;23.70;13.77;;;0.90;99.90;;;;;;5055480;28;20435;-70
2023/01/26 03:59:07;;;;;;;25.00;14.87;;;0.90;99.90;;;;;;5055766;28;20843;-71
2023/01/26 04:01:36;;;;;;;31.10;14.73;;;1.00;99.90;;;;;;5056165;28;20773;-71
2023/01/26 04:09:35;;;;;;;21.87;12.77;;;1.10;99.90;;;;;;5055285;28;20419;-70
2023/01/26 04:12:02;;;;;;;22.10;12.10;;;1.10;99.90;;;;;;5055526;28;20873;-70
2023/01/26 04:22:44;;;;;;;23.47;13.60;;;1.30;99.90;;;;;;5054915;28;20422;-71
2023/01/26 04:25:13;;;;;;;23.57;12.50;;;1.30;99.90;;;;;;5054887;28;20486;-71
2023/01/26 04:27:40;;;;;;;24.93;12.33;;;1.30;99.90;;;;;;5056051;28;20451;-70
2023/01/26 04:30:09;;;;;;;20.53;12.73;;;1.30;99.90;;;;;;5055769;28;20450;-70
2023/01/26 04:32:37;;;;;;;24.53;12.80;;;1.30;99.90;;;;;;5055511;28;20465;-70
2023/01/26 04:35:05;;;;;;;18.27;11.60;;;1.30;99.90;;;;;;5055184;28;20486;-71
2023/01/26 04:37:32;;;;;;;22.37;12.50;;;1.30;99.90;;;;;;5055936;28;20494;-69
2023/01/26 04:40:00;;;;;;;25.50;13.70;;;1.30;99.90;;;;;;5055769;28;20459;-72
2023/01/26 04:42:27;;;;;;;22.07;12.60;;;1.20;99.90;;;;;;5054854;28;20455;-71
2023/01/26 04:44:54;;;;;;;21.70;12.50;;;1.10;99.90;;;;;;5054473;28;20577;-70
2023/01/26 04:47:21;;;;;;;24.00;14.10;;;1.10;99.90;;;;;;5054516;28;20498;-71
2023/01/26 04:49:50;;;;;;;21.97;13.47;;;1.10;99.90;;;;;;5054541;28;20461;-71
2023/01/26 04:52:17;;;;;;;25.33;13.80;;;1.10;99.90;;;;;;5054903;28;20487;-71
2023/01/26 04:54:43;;;;;;;23.77;13.13;;;1.10;99.90;;;;;;5054933;28;20459;-70
2023/01/26 04:57:10;;;;;;;22.50;13.30;;;1.20;99.90;;;;;;5054561;28;20495;-70
2023/01/26 04:59:37;;;;;;;19.77;11.90;;;1.20;99.90;;;;;;5054219;28;20485;-71
2023/01/26 05:02:04;;;;;;;25.40;13.90;;;1.10;99.90;;;;;;5054616;28;20470;-70
2023/01/26 05:04:31;;;;;;;23.83;12.60;;;1.10;99.90;;;;;;5054335;28;20455;-71
2023/01/26 05:07:00;;;;;;;21.90;13.20;;;1.10;99.90;;;;;;5054288;28;20534;-71
2023/01/26 05:09:27;;;;;;;27.80;12.60;;;1.10;99.90;;;;;;5054757;28;20454;-70
2023/01/26 05:11:53;;;;;;;24.83;13.33;;;1.10;99.90;;;;;;5054775;28;20459;-69
2023/01/26 05:14:20;;;;;;;27.93;12.77;;;1.10;99.90;;;;;;5055662;28;20466;-71
2023/01/26 05:16:47;;;;;;;21.83;12.00;;;1.10;99.90;;;;;;5057891;28;20450;-71
2023/01/26 05:19:14;;;;;;;25.13;12.00;;;1.00;99.90;;;;;;5058097;28;20602;-70
2023/01/26 05:21:41;;;;;;;27.60;12.80;;;1.00;99.90;;;;;;5058404;28;20461;-71
2023/01/26 05:24:11;;;;;;;25.13;13.40;;;1.00;99.90;;;;;;5057910;28;20462;-70
2023/01/26 05:26:37;;;;;;;25.00;12.93;;;0.90;99.90;;;;;;5058331;28;20783;-70
2023/01/26 05:29:05;;;;;;;32.83;14.00;;;0.90;99.90;;;;;;5058226;28;20455;-72
2023/01/26 05:31:32;;;;;;;26.50;12.67;;;0.90;99.90;;;;;;5058318;28;20489;-71
2023/01/26 05:33:59;;;;;;;25.33;13.33;;;1.00;99.90;;;;;;5057831;28;20542;-71
2023/01/26 05:36:26;;;;;;;26.37;13.37;;;1.00;99.90;;;;;;5057970;28;20455;-72
2023/01/26 05:38:53;;;;;;;28.73;12.40;;;1.10;99.90;;;;;;5057448;28;20562;-72
2023/01/26 05:41:21;;;;;;;23.27;11.90;;;1.00;99.90;;;;;;5057682;28;20458;-70
2023/01/26 05:43:48;;;;;;;29.90;13.73;;;1.00;99.90;;;;;;5057582;28;20482;-71
2023/01/26 05:46:14;;;;;;;19.70;11.03;;;1.00;99.90;;;;;;5057845;28;20831;-71
2023/01/26 05:48:41;;;;;;;23.97;11.50;;;1.00;99.90;;;;;;5057761;28;20465;-71
2023/01/26 05:51:08;;;;;;;25.00;12.80;;;1.00;99.90;;;;;;5057444;28;20557;-70
2023/01/26 05:53:35;;;;;;;23.13;11.70;;;1.00;99.90;;;;;;5057720;28;20553;-71
2023/01/26 05:56:02;;;;;;;27.60;13.10;;;1.00;99.90;;;;;;5057268;28;20844;-71
2023/01/26 05:58:30;;;;;;;18.80;10.70;;;1.00;99.90;;;;;;5057621;28;20935;-70
2023/01/26 06:00:57;;;;;;;19.30;10.93;;;0.90;99.90;;;;;;5057549;28;20464;-71
2023/01/26 06:03:24;;;;;;;23.73;12.30;;;0.90;99.90;;;;;;5057668;28;20455;-70
2023/01/26 06:05:55;;;;;;;21.83;11.67;;;0.90;99.90;;;;;;5057626;28;20466;-71
2023/01/26 06:08:21;;;;;;;19.90;11.93;;;0.90;99.90;;;;;;5057400;28;20868;-70
2023/01/26 06:10:48;;;;;;;19.57;11.30;;;1.00;99.90;;;;;;5057440;28;20455;-71
2023/01/26 06:13:15;;;;;;;21.77;11.70;;;1.00;99.90;;;;;;5057082;28;20908;-71
2023/01/26 06:15:43;;;;;;;20.93;11.17;;;1.00;99.90;;;;;;5057215;28;20855;-72
2023/01/26 06:18:10;;;;;;;20.97;10.70;;;1.00;99.90;;;;;;5057200;28;20529;-71
2023/01/26 06:20:37;;;;;;;21.33;12.50;;;1.00;99.90;;;;;;5057417;28;20800;-71
2023/01/26 06:23:04;;;;;;;23.70;12.60;;;1.00;99.90;;;;;;5057233;28;20459;-71
2023/01/26 06:25:31;;;;;;;24.17;14.43;;;1.10;99.90;;;;;;5056925;28;20914;-71
2023/01/26 06:27:58;;;;;;;20.00;10.90;;;1.10;99.90;;;;;;5056916;28;20513;-70
2023/01/26 06:30:25;;;;;;;22.37;11.13;;;1.10;99.90;;;;;;5056962;28;20749;-71
2023/01/26 06:32:53;;;;;;;19.93;10.90;;;1.10;99.90;;;;;;5057369;28;20455;-70
2023/01/26 06:35:20;;;;;;;24.40;11.83;;;1.10;99.90;;;;;;5056813;28;20465;-70
2023/01/26 06:37:48;;;;;;;20.83;10.67;;;1.00;99.90;;;;;;5056632;28;20459;-70
2023/01/26 06:40:15;;;;;;;26.70;11.30;;;0.90;99.90;;;;;;5056205;28;20505;-70
2023/01/26 06:42:47;;;;;;;17.40;9.37;;;0.80;99.90;;;;;;5056238;28;20465;-72
2023/01/26 06:45:14;;;;;;;26.27;11.60;;;0.80;99.90;;;;;;5056559;28;20454;-70
2023/01/26 06:47:45;;;;;;;22.70;12.33;;;0.80;99.90;;;;;;5056175;28;20499;-70
2023/01/26 06:50:14;;;;;;;23.03;11.40;;;0.80;99.90;;;;;;5057005;28;20809;-70
2023/01/26 06:52:43;;;;;;;62.03;31.80;;;0.70;99.90;;;;;;5056931;28;21001;-70
2023/01/26 06:55:17;;;;;;;19.47;11.87;;;0.80;99.90;;;;;;5056806;28;20539;-69
2023/01/26 06:57:43;;;;;;;21.57;11.13;;;0.80;99.90;;;;;;5057816;28;20906;-71
2023/01/26 07:00:13;;;;;;;19.47;10.63;;;0.80;99.90;;;;;;5057483;28;20997;-71
2023/01/26 07:02:40;;;;;;;20.87;11.80;;;0.90;99.90;;;;;;5057649;28;20463;-72
2023/01/26 07:05:07;;;;;;;24.10;10.30;;;0.90;99.90;;;;;;5057100;28;20538;-70
2023/01/26 07:07:36;;;;;;;21.47;11.13;;;0.80;99.90;;;;;;5055539;28;20465;-70
2023/01/26 07:10:05;;;;;;;25.77;12.63;;;0.80;99.90;;;;;;5056702;28;20534;-71
2023/01/26 07:12:40;;;;;;;24.43;11.10;;;0.80;99.90;;;;;;5056552;28;20772;-70
2023/01/26 07:15:08;;;;;;;20.17;9.30;;;0.90;99.90;;;;;;5056247;28;20557;-71
2023/01/26 07:17:35;;;;;;;18.67;10.03;;;0.90;99.90;;;;;;5055987;28;20462;-71
2023/01/26 07:20:01;;;;;;;18.37;10.00;;;0.90;99.90;;;;;;5056282;28;20479;-70
2023/01/26 07:22:28;;;;;;;16.33;9.40;;;1.00;99.90;;;;;;5056184;28;20534;-71
2023/01/26 07:24:57;;;;;;;16.10;8.97;;;1.00;99.90;;;;;;5056954;28;20542;-71
2023/01/26 07:27:23;;;;;;;16.03;9.03;;;1.00;99.90;;;;;;5075883;28;20460;-72
2023/01/26 07:29:51;;;;;;;17.40;10.43;;;0.90;99.90;;;;;;5076124;28;20453;-71
2023/01/26 07:32:18;;;;;;;17.40;9.77;;;0.90;99.90;;;;;;5075875;28;20833;-70
2023/01/26 07:34:45;;;;;;;18.33;9.33;;;0.90;99.90;;;;;;5076026;28;20788;-71
2023/01/26 07:37:11;;;;;;;17.03;8.47;;;0.80;99.90;;;;;;5075542;28;20468;-72
2023/01/26 07:39:38;;;;;;;15.43;9.10;;;0.90;99.90;;;;;;5075636;28;20984;-71
2023/01/26 07:42:07;;;;;;;17.03;10.00;;;0.80;99.90;;;;;;5075383;28;20550;-71
2023/01/26 07:44:33;;;;;;;19.37;8.87;;;0.80;99.90;;;;;;5075266;28;20485;-71
2023/01/26 07:47:00;;;;;;;15.80;9.40;;;0.80;99.90;;;;;;5075534;28;20454;-70
2023/01/26 07:49:27;;;;;;;13.73;8.40;;;0.70;99.90;;;;;;5075597;28;20481;-70
2023/01/26 07:51:54;;;;;;;14.37;9.30;;;0.70;99.90;;;;;;5075675;28;20515;-71
2023/01/26 07:54:21;;;;;;;14.10;8.23;;;0.70;99.90;;;;;;5075270;28;20534;-72
2023/01/26 07:56:51;;;;;;;12.10;7.70;;;0.60;99.90;;;;;;5075898;28;20454;-73
2023/01/26 07:59:20;;;;;;;11.53;7.50;;;0.60;99.90;;;;;;5075697;28;20509;-72
2023/01/26 08:01:48;;;;;;;14.80;8.00;;;0.60;99.90;;;;;;5075617;28;20945;-71
2023/01/26 08:04:15;;;;;;;15.10;9.17;;;0.60;99.90;;;;;;5074183;28;20999;-71
2023/01/26 08:06:42;;;;;;;15.27;8.87;;;0.60;99.90;;;;;;5075197;28;20454;-70
2023/01/26 08:09:09;;;;;;;15.00;10.43;;;0.60;99.90;;;;;;5066686;28;20460;-70
2023/01/26 08:11:36;;;;;;;17.73;8.63;;;0.60;99.90;;;;;;5054454;28;20465;-71
2023/01/26 08:14:03;;;;;;;14.90;8.50;;;0.60;99.90;;;;;;5054667;28;20542;-71
2023/01/26 08:16:31;;;;;;;16.00;10.03;;;0.60;99.90;;;;;;5054519;28;20455;-71
2023/01/26 08:18:58;;;;;;;19.10;9.33;;;0.60;99.90;;;;;;5054320;28;20457;-71
2023/01/26 08:21:25;;;;;;;14.10;8.73;;;0.60;99.90;;;;;;5054667;28;20487;-71
2023/01/26 08:23:53;;;;;;;15.60;8.67;;;0.60;99.90;;;;;;5054685;28;20467;-70
2023/01/26 08:26:20;;;;;;;16.77;8.43;;;0.60;99.90;;;;;;5054567;28;20450;-69
2023/01/26 08:28:47;;;;;;;16.13;9.10;;;0.70;99.90;;;;;;5054310;28;20983;-70
2023/01/26 08:31:18;;;;;;;17.27;9.30;;;0.80;99.90;;;;;;5055016;28;20465;-70
2023/01/26 08:33:49;;;;;;;15.57;10.03;;;0.80;99.90;;;;;;5054122;28;20864;-70
2023/01/26 08:36:17;;;;;;;15.90;8.30;;;0.80;99.90;;;;;;5054719;28;20458;-70
2023/01/26 08:38:44;;;;;;;17.37;9.13;;;0.70;99.90;;;;;;5054732;28;20470;-71
2023/01/26 08:41:12;;;;;;;13.90;8.43;;;0.70;99.90;;;;;;5054547;28;20544;-70
2023/01/26 08:43:39;;;;;;;14.67;8.73;;;0.70;99.90;;;;;;5053880;28;20479;-71
2023/01/26 08:46:06;;;;;;;14.17;9.00;;;0.70;99.90;;;;;;5054238;28;20456;-71
2023/01/26 08:48:33;;;;;;;15.47;9.57;;;0.70;99.90;;;;;;5053997;28;20463;-70
2023/01/26 08:51:03;;;;;;;14.47;9.93;;;0.70;99.90;;;;;;5057778;28;20457;-70
2023/01/26 08:53:31;;;;;;;14.27;9.00;;;0.70;99.90;;;;;;5058453;28;20573;-71
2023/01/26 08:56:00;;;;;;;14.17;8.80;;;0.80;99.90;;;;;;5058148;28;20786;-70
2023/01/26 08:58:27;;;;;;;18.03;9.90;;;0.80;99.90;;;;;;5058110;28;20546;-71
2023/01/26 09:00:54;;;;;;;17.33;9.83;;;0.70;99.90;;;;;;5058211;28;20493;-70
2023/01/26 09:03:21;;;;;;;13.13;8.47;;;0.60;99.90;;;;;;5057834;28;20927;-70
2023/01/26 09:05:48;;;;;;;12.47;7.57;;;0.60;99.90;;;;;;5057762;28;20862;-70
2023/01/26 09:08:16;;;;;;;11.80;8.17;;;0.60;99.90;;;;;;5058151;28;21005;-69
2023/01/26 09:10:43;;;;;;;14.93;9.27;;;0.50;99.90;;;;;;5057825;28;20549;-71
2023/01/26 09:13:11;;;;;;;11.20;8.27;;;0.60;99.90;;;;;;5058410;28;20538;-70
2023/01/26 09:15:38;;;;;;;13.60;8.20;;;0.60;99.90;;;;;;5058176;28;20778;-70
2023/01/26 09:18:05;;;;;;;19.03;9.73;;;0.60;99.90;;;;;;5058074;28;20558;-71
2023/01/26 09:20:32;;;;;;;16.73;10.60;;;0.60;99.90;;;;;;5057988;28;20946;-70
2023/01/26 09:22:59;;;;;;;16.30;9.63;;;0.60;99.90;;;;;;5057577;28;20494;-70
2023/01/26 09:25:27;;;;;;;11.93;7.73;;;0.60;99.90;;;;;;5058120;28;20562;-70
2023/01/26 09:27:54;;;;;;;16.57;8.73;;;0.60;99.90;;;;;;5057838;28;20490;-70
2023/01/26 09:30:23;;;;;;;15.33;9.53;;;0.70;99.90;;;;;;5058303;28;20451;-71
2023/01/26 09:32:50;;;;;;;13.83;8.23;;;0.70;99.90;;;;;;5057796;28;20517;-71
2023/01/26 09:35:17;;;;;;;16.53;8.97;;;0.80;99.90;;;;;;5057884;28;20455;-70
2023/01/26 09:37:44;;;;;;;14.50;9.07;;;0.80;99.90;;;;;;5057385;28;20465;-68
2023/01/26 09:40:17;;;;;;;11.93;8.27;;;0.80;99.90;;;;;;5057206;28;20485;-69
2023/01/26 09:43:05;;;;;;;16.60;9.70;;;0.70;99.90;;;;;;5057534;28;20842;-71
2023/01/26 09:45:39;;;;;;;16.00;9.80;;;0.60;99.90;;;;;;5056573;28;20493;-71
2023/01/26 09:48:20;;;;;;;14.80;9.07;;;0.60;99.90;;;;;;5056284;28;20450;-71
2023/01/26 09:50:54;;;;;;;15.00;9.27;;;0.50;99.90;;;;;;5056176;28;20518;-70
2023/01/26 09:53:24;;;;;;;20.87;11.90;;;0.60;99.90;;;;;;5055853;28;20442;-69
2023/01/26 09:55:52;;;;;;;18.17;11.03;;;0.60;99.90;;;;;;5056045;28;20545;-70
2023/01/26 09:58:33;;;;;;;16.67;10.23;;;0.60;99.90;;;;;;5056236;28;20455;-70
2023/01/26 10:01:02;;;;;;;16.27;9.13;;;0.60;99.90;;;;;;5055105;28;20463;-70
2023/01/26 10:03:36;;;;;;;16.40;10.80;;;0.60;99.90;;;;;;5055998;28;20478;-70
2023/01/26 10:06:13;;;;;;;15.10;10.10;;;0.60;99.90;;;;;;5055705;28;20489;-70
2023/01/26 10:08:41;;;;;;;13.83;9.10;;;0.60;99.90;;;;;;5055814;28;20449;-69
2023/01/26 10:11:16;;;;;;;14.40;9.70;;;0.60;99.90;;;;;;5055618;28;21002;-70
2023/01/26 10:13:49;;;;;;;17.47;9.77;;;0.50;99.90;;;;;;5055825;28;20474;-70
2023/01/26 10:16:17;;;;;;;15.17;9.27;;;0.50;99.90;;;;;;5056080;28;20443;-70
2023/01/26 10:18:53;;;;;;;14.83;9.77;;;0.50;99.90;;;;;;5055797;28;20771;-70
2023/01/26 10:21:25;;;;;;;16.43;10.60;;;0.50;99.90;;;;;;5055599;28;20463;-70
2023/01/26 10:23:52;;;;;;;16.17;10.13;;;0.50;99.90;;;;;;5055649;28;20439;-70
2023/01/26 10:26:21;;;;;;;16.40;9.87;;;0.60;99.90;;;;;;5055890;28;20459;-70
2023/01/26 10:28:51;;;;;;;17.37;11.57;;;0.60;99.90;;;;;;5055365;28;20538;-70
2023/01/26 10:31:21;;;;;;;17.60;11.20;;;0.60;99.90;;;;;;5055655;28;20757;-69
2023/01/26 10:33:52;;;;;;;15.20;9.93;;;0.60;99.90;;;;;;5055379;28;20443;-69
2023/01/26 10:36:19;;;;;;;17.10;10.40;;;0.60;99.90;;;;;;5055854;28;20463;-71
2023/01/26 10:38:47;;;;;;;17.50;10.67;;;0.60;99.90;;;;;;5055380;28;20541;-69
2023/01/26 10:41:24;;;;;;;18.90;10.07;;;0.60;99.90;;;;;;5055180;28;20493;-71
2023/01/26 10:43:54;;;;;;;16.80;9.67;;;0.60;99.90;;;;;;5016714;28;1104965;-70
2023/01/26 10:46:26;;;;;;;17.80;11.30;;;0.50;99.90;;;;;;5056359;28;20540;-69
2023/01/26 10:48:54;;;;;;;16.73;9.70;;;0.50;99.90;;;;;;5056363;28;20447;-71
2023/01/26 10:51:25;;;;;;;18.57;11.33;;;0.50;99.90;;;;;;5056191;28;20852;-69
2023/01/26 10:54:19;;;;;;;21.60;11.03;;;0.60;99.90;;;;;;5056665;28;20847;-69
2023/01/26 10:56:48;;;;;;;20.47;10.63;;;0.60;99.90;;;;;;5056074;28;20776;-70
2023/01/26 10:59:25;;;;;;;18.40;10.53;;;0.60;99.90;;;;;;5056208;28;20455;-70
2023/01/26 11:01:54;;;;;;;21.00;10.00;;;0.60;99.90;;;;;;5055825;28;20915;-71
2023/01/26 11:04:20;;;;;;;19.90;9.67;;;0.60;99.90;;;;;;5055787;28;20467;-71
2023/01/26 11:06:48;;;;;;;19.27;10.47;;;0.70;99.90;;;;;;5055951;28;20462;-69
2023/01/26 11:09:20;;;;;;;15.90;10.53;;;0.60;99.90;;;;;;5056306;28;20465;-71
2023/01/26 11:11:59;;;;;;;16.33;9.37;;;0.60;99.90;;;;;;5055309;28;20467;-71
2023/01/26 11:14:28;;;;;;;17.53;9.70;;;0.60;99.90;;;;;;5055453;28;20454;-70
2023/01/26 11:17:01;;;;;;;13.07;8.80;;;0.60;99.90;;;;;;5055539;28;20455;-71
2023/01/26 11:20:06;;;;;;;13.80;9.67;;;0.70;99.90;;;;;;5055332;28;20472;-69
2023/01/26 11:22:40;;;;;;;14.17;9.07;;;0.70;99.90;;;;;;5055181;28;20474;-70
2023/01/26 11:25:14;;;;;;;13.07;9.00;;;0.70;99.90;;;;;;5055255;28;20505;-70
2023/01/26 11:27:50;;;;;;;14.33;8.77;;;0.60;99.90;;;;;;5055247;28;20439;-70
2023/01/26 11:30:46;;;;;;;12.20;7.83;;;0.60;99.90;;;;;;5055507;28;20497;-69
2023/01/26 11:33:23;;;;;;;13.30;7.87;;;0.60;99.90;;;;;;5055619;28;20538;-70
2023/01/26 11:36:02;;;;;;;12.07;8.13;;;0.60;99.90;;;;;;5055499;28;20454;-70
2023/01/26 11:38:38;;;;;;;14.50;8.37;;;0.70;99.90;;;;;;5055167;28;20474;-70
2023/01/26 11:41:22;;;;;;;13.70;8.00;;;0.70;99.90;;;;;;5054611;28;20471;-72
2023/01/26 11:44:10;;;;;;;9.87;7.73;;;0.90;99.90;;;;;;5054752;28;20497;-72
2023/01/26 11:46:56;;;;;;;13.27;7.90;;;0.90;99.90;;;;;;5056210;28;20557;-70
2023/01/26 11:49:38;;;;;;;11.80;7.00;;;0.90;99.90;;;;;;5074961;28;20443;-70
2023/01/26 11:52:13;;;;;;;11.90;7.63;;;0.80;99.90;;;;;;5074814;28;20453;-72
2023/01/26 11:55:06;;;;;;;20.13;8.33;;;0.80;99.90;;;;;;5073391;28;20454;-70
2023/01/26 11:57:40;;;;;;;10.80;6.43;;;0.80;99.90;;;;;;5075010;28;20984;-71
2023/01/26 12:00:16;;;;;;;8.83;6.33;;;0.80;99.90;;;;;;5074646;28;20443;-70
2023/01/26 12:02:50;;;;;;;8.87;5.77;;;0.80;99.90;;;;;;5074478;28;20874;-70
2023/01/26 12:05:22;;;;;;;8.43;6.13;;;0.80;99.90;;;;;;5069858;28;20465;-71
2023/01/26 12:07:55;;;;;;;10.80;6.70;;;0.80;99.90;;;;;;5054550;28;20444;-71
2023/01/26 12:10:26;;;;;;;9.03;5.60;;;0.80;99.90;;;;;;5054595;28;20714;-70
2023/01/26 12:13:00;;;;;;;8.90;5.63;;;0.90;99.90;;;;;;5055450;28;20439;-70
2023/01/26 12:15:33;;;;;;;10.63;6.70;;;1.00;99.90;;;;;;5055121;28;20535;-70
2023/01/26 12:18:10;;;;;;;9.23;5.80;;;1.00;99.90;;;;;;5054687;28;20923;-70
2023/01/26 12:20:39;;;;;;;10.90;5.80;;;1.10;99.90;;;;;;5054681;28;20462;-70
2023/01/26 12:23:17;;;;;;;10.77;6.70;;;1.20;99.90;;;;;;5054628;28;20460;-70
2023/01/26 12:25:47;;;;;;;9.23;6.63;;;1.30;99.90;;;;;;5055230;28;20453;-70
2023/01/26 12:28:20;;;;;;;12.10;8.53;;;1.30;99.90;;;;;;5054671;28;20530;-70
2023/01/26 12:30:53;;;;;;;11.53;7.37;;;1.30;99.90;;;;;;5054967;28;20542;-70
2023/01/26 12:33:22;;;;;;;11.87;8.63;;;1.40;99.90;;;;;;5053890;28;20486;-70
2023/01/26 12:36:01;;;;;;;8.13;6.13;;;1.40;99.90;;;;;;5054327;28;20813;-70
2023/01/26 12:38:43;;;;;;;7.90;6.53;;;1.30;99.90;;;;;;5054671;28;20842;-71
2023/01/26 12:41:16;;;;;;;10.90;7.40;;;1.20;99.90;;;;;;5054312;28;20554;-70
2023/01/26 12:44:02;;;;;;;9.73;6.70;;;1.20;99.90;;;;;;5053805;28;20805;-70
2023/01/26 12:46:33;;;;;;;13.23;7.07;;;1.20;99.90;;;;;;5054759;28;20450;-70
2023/01/26 12:49:07;;;;;;;9.13;7.00;;;1.30;99.90;;;;;;5054649;28;20449;-71
2023/01/26 12:51:39;;;;;;;10.47;7.37;;;1.30;99.90;;;;;;5054983;28;20490;-70
2023/01/26 12:54:14;;;;;;;8.80;6.43;;;1.30;99.90;;;;;;5054162;28;20526;-70
2023/01/26 12:56:44;;;;;;;11.70;7.50;;;1.30;99.90;;;;;;5053976;28;20909;-71
2023/01/26 12:59:18;;;;;;;10.73;6.83;;;1.30;99.90;;;;;;5053997;28;20526;-70
2023/01/26 13:01:45;;;;;;;8.10;6.23;;;1.30;99.90;;;;;;5054402;28;20467;-70
2023/01/26 13:04:15;;;;;;;9.63;7.00;;;1.30;99.90;;;;;;5054329;28;20945;-71
2023/01/26 13:06:42;;;;;;;11.17;7.60;;;1.30;99.90;;;;;;5054716;28;20465;-69
2023/01/26 13:09:21;;;;;;;10.50;7.57;;;1.30;99.90;;;;;;5054282;28;20795;-70
2023/01/26 13:11:51;;;;;;;12.30;7.77;;;1.40;99.90;;;;;;5054483;28;20447;-69
2023/01/26 13:14:30;;;;;;;12.20;7.50;;;1.40;99.90;;;;;;5054320;28;20469;-70
2023/01/26 13:16:58;;;;;;;12.50;8.33;;;1.40;99.90;;;;;;5053858;28;20439;-70
2023/01/26 13:19:50;;;;;;;9.77;7.47;;;1.40;99.90;;;;;;5053724;28;20463;-71
2023/01/26 13:22:39;;;;;;;11.50;7.70;;;1.40;99.90;;;;;;5054048;28;20478;-69
2023/01/26 13:25:14;;;;;;;11.17;6.70;;;1.40;99.90;;;;;;5059714;28;20472;-70
2023/01/26 13:27:45;;;;;;;11.03;6.97;;;1.30;99.90;;;;;;5074206;28;20448;-70
2023/01/26 13:30:38;;;;;;;11.20;8.27;;;1.30;99.90;;;;;;5073800;28;20435;-70
2023/01/26 13:33:21;;;;;;;12.63;8.40;;;1.20;99.90;;;;;;5071761;28;20914;-71
2023/01/26 13:35:53;;;;;;;10.53;8.50;;;1.20;99.90;;;;;;5075362;28;20438;-70
2023/01/26 13:38:28;;;;;;;12.27;8.77;;;1.10;99.90;;;;;;5077699;28;20453;-70
2023/01/26 13:40:54;;;;;;;12.97;9.07;;;1.10;99.90;;;;;;5077299;28;20497;-70
2023/01/26 13:43:28;;;;;;;15.23;10.73;;;1.10;99.90;;;;;;5077131;28;20492;-70